Time;durP1;ratioP1;P1;durP2;ratioP2;P2;SDS_P1;SDS_P2;PMS_P1;PMS_P2;Temp;Humidity;BMP_temperature;BMP_pressure;BME280_temperature;BME280_humidity;BME280_pressure;Samples;Min_cycle;Max_cycle;Signal;HPM_P1;HPM_P2
2023/12/22 00:02:20;;;;;;;3.00;0.90;;;10.00;99.90;;;;;;5055250;28;20483;-75
2023/12/22 00:04:47;;;;;;;2.30;1.10;;;9.90;99.90;;;;;;5048980;28;20485;-74
2023/12/22 00:07:16;;;;;;;2.40;0.60;;;9.90;99.90;;;;;;5042908;28;20569;-74
2023/12/22 00:09:43;;;;;;;3.50;0.90;;;9.80;99.90;;;;;;5055442;28;20483;-75
2023/12/22 00:12:09;;;;;;;1.80;0.73;;;9.80;99.90;;;;;;5056893;28;20561;-74
2023/12/22 00:14:37;;;;;;;6.90;1.10;;;9.90;99.90;;;;;;5054253;28;20658;-73
2023/12/22 00:17:04;;;;;;;3.00;0.90;;;9.90;99.90;;;;;;5055898;28;20522;-72
2023/12/22 00:19:31;;;;;;;1.93;1.13;;;9.90;99.90;;;;;;5055801;28;21368;-73
2023/12/22 00:21:58;;;;;;;6.67;1.30;;;9.90;99.90;;;;;;5055866;28;20573;-74
2023/12/22 00:24:26;;;;;;;2.10;0.70;;;9.80;99.90;;;;;;5052747;28;20543;-76
2023/12/22 00:26:53;;;;;;;4.60;0.97;;;9.70;99.90;;;;;;5055458;28;20503;-74
2023/12/22 00:29:19;;;;;;;7.47;0.80;;;9.70;99.90;;;;;;5056630;28;20591;-74
2023/12/22 00:31:46;;;;;;;3.30;1.27;;;9.70;99.90;;;;;;5056501;28;20644;-74
2023/12/22 00:34:14;;;;;;;4.47;0.97;;;9.60;99.90;;;;;;5055771;28;20482;-74
2023/12/22 00:36:41;;;;;;;4.40;1.10;;;9.60;99.90;;;;;;5053959;28;20465;-73
2023/12/22 00:39:08;;;;;;;2.90;0.87;;;9.50;99.90;;;;;;5055745;28;20483;-73
2023/12/22 00:41:36;;;;;;;5.30;0.87;;;9.60;99.90;;;;;;5055034;28;20905;-74
2023/12/22 00:44:03;;;;;;;8.10;1.27;;;9.50;99.90;;;;;;5051194;28;20555;-70
2023/12/22 00:46:30;;;;;;;5.73;1.17;;;9.50;99.90;;;;;;5071660;28;20932;-73
2023/12/22 00:48:57;;;;;;;2.43;0.97;;;9.40;99.90;;;;;;5054917;28;20479;-71
2023/12/22 00:51:24;;;;;;;4.50;1.63;;;9.50;99.90;;;;;;5056343;28;20475;-71
2023/12/22 00:53:51;;;;;;;6.17;1.40;;;9.40;99.90;;;;;;5056311;28;20471;-70
2023/12/22 00:56:17;;;;;;;9.97;1.77;;;9.50;99.90;;;;;;5056827;28;20556;-76
2023/12/22 00:58:46;;;;;;;5.70;1.27;;;9.50;99.90;;;;;;5055386;28;20487;-75
2023/12/22 01:01:12;;;;;;;7.73;1.43;;;9.50;99.90;;;;;;5043446;28;20501;-74
2023/12/22 01:03:39;;;;;;;4.63;1.40;;;9.50;99.90;;;;;;5056489;28;21108;-74
2023/12/22 01:06:06;;;;;;;6.47;1.37;;;9.50;99.90;;;;;;5056011;28;20506;-79
2023/12/22 01:08:33;;;;;;;3.37;1.43;;;9.50;99.90;;;;;;5056891;28;20532;-75
2023/12/22 01:10:59;;;;;;;2.40;1.67;;;9.60;99.90;;;;;;5053828;28;20856;-75
2023/12/22 01:13:26;;;;;;;4.87;1.73;;;9.60;99.90;;;;;;5055862;28;20559;-76
2023/12/22 01:15:54;;;;;;;6.33;1.67;;;9.50;99.90;;;;;;5056877;28;20566;-76
2023/12/22 01:18:21;;;;;;;3.00;1.93;;;9.60;99.90;;;;;;5054856;28;20555;-74
2023/12/22 01:20:49;;;;;;;5.70;2.30;;;9.60;99.90;;;;;;5055178;28;20914;-75
2023/12/22 01:23:16;;;;;;;4.00;1.50;;;9.60;99.90;;;;;;5057820;28;20478;-72
2023/12/22 01:25:42;;;;;;;22.50;3.53;;;9.60;99.90;;;;;;5054508;28;20515;-77
2023/12/22 01:28:09;;;;;;;4.00;1.27;;;9.60;99.90;;;;;;5061267;28;21261;-75
2023/12/22 01:30:36;;;;;;;20.63;2.70;;;9.60;99.90;;;;;;5052261;28;20610;-76
2023/12/22 01:33:04;;;;;;;6.07;1.47;;;9.60;99.90;;;;;;5054445;28;20479;-75
2023/12/22 01:35:31;;;;;;;8.63;2.10;;;9.70;99.90;;;;;;5054437;28;20979;-75
2023/12/22 01:37:58;;;;;;;8.00;2.03;;;9.70;99.90;;;;;;5057970;28;20650;-79
2023/12/22 01:40:25;;;;;;;4.67;1.70;;;9.80;99.90;;;;;;5061958;28;20487;-75
2023/12/22 01:42:52;;;;;;;6.47;1.30;;;9.80;99.90;;;;;;5058128;28;20624;-77
2023/12/22 01:45:19;;;;;;;8.30;1.30;;;9.70;99.90;;;;;;5070217;28;20574;-76
2023/12/22 01:47:47;;;;;;;3.77;1.63;;;9.70;99.90;;;;;;5063514;28;20558;-76
2023/12/22 01:50:16;;;;;;;7.77;1.50;;;9.60;99.90;;;;;;5061507;28;20570;-78
2023/12/22 01:52:44;;;;;;;6.53;1.50;;;9.60;99.90;;;;;;5064427;28;20502;-76
2023/12/22 01:55:13;;;;;;;2.57;1.00;;;9.60;99.90;;;;;;5062975;28;20562;-76
2023/12/22 01:57:41;;;;;;;4.23;1.07;;;9.60;99.90;;;;;;5049662;28;20498;-76
2023/12/22 02:00:09;;;;;;;8.93;1.63;;;9.50;99.90;;;;;;5038947;28;20554;-76
2023/12/22 02:02:38;;;;;;;5.77;1.10;;;9.50;99.90;;;;;;5047504;28;20534;-74
2023/12/22 02:05:05;;;;;;;26.07;2.60;;;9.40;99.90;;;;;;5059649;28;20920;-74
2023/12/22 02:07:34;;;;;;;7.13;1.37;;;9.40;99.90;;;;;;5063363;28;20569;-74
2023/12/22 02:10:03;;;;;;;5.23;1.90;;;9.40;99.90;;;;;;5062975;28;20563;-75
2023/12/22 02:12:30;;;;;;;10.63;1.40;;;9.40;99.90;;;;;;5062257;28;20489;-76
2023/12/22 02:14:57;;;;;;;2.70;1.17;;;9.50;99.90;;;;;;5062964;28;20541;-76
2023/12/22 02:17:30;;;;;;;1.80;0.93;;;9.40;99.90;;;;;;5057803;28;20574;-74
2023/12/22 02:19:57;;;;;;;10.80;3.50;;;9.40;99.90;;;;;;5059102;28;20570;-72
2023/12/22 02:22:24;;;;;;;13.57;1.43;;;9.40;99.90;;;;;;5061486;28;20573;-75
2023/12/22 02:24:52;;;;;;;2.20;1.30;;;9.30;99.90;;;;;;5062453;28;20570;-74
2023/12/22 02:27:28;;;;;;;1.60;0.90;;;9.30;99.90;;;;;;5062744;28;20872;-74
2023/12/22 02:30:00;;;;;;;2.97;1.40;;;9.30;99.90;;;;;;5054535;28;20554;-74
2023/12/22 02:32:32;;;;;;;25.33;2.80;;;9.30;99.90;;;;;;5038326;28;20563;-73
2023/12/22 02:35:02;;;;;;;6.83;1.27;;;9.30;99.90;;;;;;5059867;28;20991;-75
2023/12/22 02:37:30;;;;;;;2.93;1.10;;;9.30;99.90;;;;;;5047400;28;20468;-72
2023/12/22 02:39:59;;;;;;;15.27;2.37;;;9.30;99.90;;;;;;5059836;28;20510;-72
2023/12/22 02:42:29;;;;;;;5.70;1.87;;;9.30;99.90;;;;;;5052961;28;20573;-72
2023/12/22 02:44:57;;;;;;;4.80;1.27;;;9.30;99.90;;;;;;5050626;28;20571;-74
2023/12/22 02:47:24;;;;;;;3.43;1.13;;;9.30;99.90;;;;;;5049952;28;20982;-75
2023/12/22 02:49:51;;;;;;;10.30;2.57;;;9.30;99.90;;;;;;5043306;28;20541;-72
2023/12/22 02:52:18;;;;;;;5.27;1.43;;;9.30;99.90;;;;;;5061715;28;20546;-76
2023/12/22 02:54:47;;;;;;;4.60;1.47;;;9.30;99.90;;;;;;5062351;28;20540;-75
2023/12/22 02:57:15;;;;;;;4.07;1.70;;;9.30;99.90;;;;;;5062170;28;20475;-74
2023/12/22 02:59:41;;;;;;;8.23;1.30;;;9.30;99.90;;;;;;5062346;28;20574;-73
2023/12/22 03:02:09;;;;;;;9.20;2.30;;;9.40;99.90;;;;;;5061206;28;20511;-73
2023/12/22 03:04:35;;;;;;;8.83;1.50;;;9.40;99.90;;;;;;5058362;28;20478;-78
2023/12/22 03:07:02;;;;;;;14.60;2.47;;;;;;;;;;5053429;28;20838;-75
2023/12/22 03:09:29;;;;;;;4.73;1.83;;;9.50;99.90;;;;;;5066270;28;20666;-75
2023/12/22 03:12:01;;;;;;;11.63;1.70;;;9.50;99.90;;;;;;5061947;28;20528;-74
2023/12/22 03:14:29;;;;;;;7.13;1.67;;;9.60;99.90;;;;;;5057958;28;20475;-74
2023/12/22 03:16:56;;;;;;;12.50;1.83;;;9.40;99.90;;;;;;5060858;28;20625;-79
2023/12/22 03:19:23;;;;;;;6.80;2.03;;;9.40;99.90;;;;;;5061980;28;20558;-76
2023/12/22 03:21:50;;;;;;;6.03;1.30;;;9.30;99.90;;;;;;5066637;28;20834;-71
2023/12/22 03:24:18;;;;;;;6.37;1.90;;;9.20;99.90;;;;;;5063945;28;20502;-74
2023/12/22 03:26:45;;;;;;;6.50;1.83;;;9.20;99.90;;;;;;5061811;28;20965;-72
2023/12/22 03:29:12;;;;;;;10.20;2.67;;;9.20;99.90;;;;;;5061286;28;20537;-77
2023/12/22 03:31:40;;;;;;;14.33;2.77;;;9.20;99.90;;;;;;5060510;28;20603;-73
2023/12/22 03:34:07;;;;;;;7.33;2.27;;;9.20;99.90;;;;;;5061623;28;21440;-72
2023/12/22 03:36:34;;;;;;;10.40;1.70;;;9.10;99.90;;;;;;5061347;28;20827;-74
2023/12/22 03:39:02;;;;;;;11.30;2.10;;;9.10;99.90;;;;;;5061687;28;20511;-70
2023/12/22 03:41:30;;;;;;;16.17;2.97;;;;;;;;;;5060671;28;20483;-78
2023/12/22 03:43:56;;;;;;;8.13;1.87;;;9.10;99.90;;;;;;5062413;28;20507;-78
2023/12/22 03:46:23;;;;;;;5.63;2.20;;;9.10;99.90;;;;;;5061159;28;20506;-75
2023/12/22 03:48:53;;;;;;;17.03;2.07;;;9.00;99.90;;;;;;5060132;28;20546;-80
2023/12/22 03:51:20;;;;;;;10.13;1.70;;;9.00;99.90;;;;;;5060174;28;20935;-76
2023/12/22 03:53:47;;;;;;;4.57;2.40;;;9.00;99.90;;;;;;5061843;28;20916;-77
2023/12/22 03:56:13;;;;;;;7.33;2.07;;;9.10;99.90;;;;;;5060323;28;21068;-79
2023/12/22 03:58:40;;;;;;;12.93;2.87;;;9.10;99.90;;;;;;5060426;28;20546;-76
2023/12/22 04:01:08;;;;;;;9.63;2.77;;;9.10;99.90;;;;;;5060534;28;20494;-75
2023/12/22 04:03:34;;;;;;;4.87;1.93;;;9.10;99.90;;;;;;5061060;28;20473;-78
2023/12/22 04:06:04;;;;;;;3.73;1.63;;;9.10;99.90;;;;;;5058509;28;20557;-79
2023/12/22 04:08:31;;;;;;;13.33;2.87;;;9.20;99.90;;;;;;5038189;28;20510;-73
2023/12/22 04:10:58;;;;;;;11.73;3.20;;;9.10;99.90;;;;;;5060081;28;20570;-76
2023/12/22 04:13:25;;;;;;;3.63;1.30;;;9.10;99.90;;;;;;5060907;28;20506;-77
2023/12/22 04:15:52;;;;;;;6.90;3.00;;;;;;;;;;5058024;28;20582;-76
2023/12/22 04:18:19;;;;;;;7.60;1.90;;;9.20;99.90;;;;;;5059803;28;20894;-77
2023/12/22 04:20:45;;;;;;;11.20;1.93;;;9.10;99.90;;;;;;5058568;28;20665;-81
2023/12/22 04:23:13;;;;;;;7.37;2.23;;;9.10;99.90;;;;;;5063393;28;20510;-75
2023/12/22 04:25:40;;;;;;;14.40;3.10;;;9.10;99.90;;;;;;5061146;28;21356;-74
2023/12/22 04:28:07;;;;;;;6.77;2.20;;;9.10;99.90;;;;;;5056212;28;20565;-75
2023/12/22 04:30:35;;;;;;;12.63;2.67;;;9.10;99.90;;;;;;5063597;28;20568;-73
2023/12/22 04:33:02;;;;;;;9.03;2.40;;;9.10;99.90;;;;;;5057195;28;20480;-75
2023/12/22 04:35:28;;;;;;;8.80;2.70;;;9.20;99.90;;;;;;5051156;28;20503;-80
2023/12/22 04:37:56;;;;;;;14.50;3.00;;;9.10;99.90;;;;;;5039547;28;20504;-74
2023/12/22 04:40:24;;;;;;;4.70;2.33;;;9.10;99.90;;;;;;5039175;28;20511;-77
2023/12/22 04:42:51;;;;;;;4.80;2.03;;;9.10;99.90;;;;;;5040558;28;20583;-80
2023/12/22 04:45:18;;;;;;;6.13;2.00;;;9.10;99.90;;;;;;5039616;28;20567;-81
2023/12/22 04:47:45;;;;;;;10.33;1.70;;;;;;;;;;5038325;28;20486;-78
2023/12/22 04:50:12;;;;;;;11.93;2.73;;;9.20;99.90;;;;;;5040060;28;20504;-77
2023/12/22 04:52:39;;;;;;;9.63;3.17;;;9.20;99.90;;;;;;5039670;28;20504;-75
2023/12/22 04:55:06;;;;;;;10.97;3.07;;;9.20;99.90;;;;;;5038152;28;20541;-79
2023/12/22 04:57:34;;;;;;;7.27;1.90;;;9.20;99.90;;;;;;5044673;28;20983;-78
2023/12/22 05:00:01;;;;;;;3.57;1.60;;;9.20;99.90;;;;;;5035593;28;20552;-78
2023/12/22 05:02:28;;;;;;;14.33;2.30;;;9.20;99.90;;;;;;5048146;28;20478;-74
2023/12/22 05:04:55;;;;;;;19.00;2.37;;;9.20;99.90;;;;;;5053657;28;20475;-81
2023/12/22 05:07:22;;;;;;;9.17;2.63;;;9.30;99.90;;;;;;5058166;28;21009;-76
2023/12/22 05:09:49;;;;;;;6.33;1.80;;;9.30;99.90;;;;;;5059317;28;20925;-79
2023/12/22 05:12:16;;;;;;;16.03;3.03;;;9.30;99.90;;;;;;5059222;28;20909;-77
2023/12/22 05:14:44;;;;;;;6.33;2.23;;;9.40;99.90;;;;;;5054588;28;20483;-73
2023/12/22 05:17:11;;;;;;;14.90;3.40;;;9.40;99.90;;;;;;5060255;28;21592;-71
2023/12/22 05:19:38;;;;;;;15.27;3.23;;;9.40;99.90;;;;;;5060457;28;20889;-74
2023/12/22 05:22:05;;;;;;;2.83;1.50;;;9.30;99.90;;;;;;5058100;28;20506;-71
2023/12/22 05:24:32;;;;;;;27.63;3.70;;;;;;;;;;5058916;28;20502;-72
2023/12/22 05:26:59;;;;;;;11.50;2.63;;;9.40;99.90;;;;;;5059330;28;20518;-75
2023/12/22 05:29:25;;;;;;;11.67;2.70;;;9.40;99.90;;;;;;5059642;28;20558;-72
2023/12/22 05:31:53;;;;;;;18.37;3.33;;;9.50;99.90;;;;;;5059406;28;20511;-73
2023/12/22 05:34:20;;;;;;;11.90;3.13;;;9.40;99.90;;;;;;5058795;28;20562;-76
2023/12/22 05:36:47;;;;;;;17.23;2.30;;;9.50;99.90;;;;;;5057945;28;20482;-78
2023/12/22 05:39:14;;;;;;;14.70;2.20;;;9.50;99.90;;;;;;5067142;28;20905;-79
2023/12/22 05:41:41;;;;;;;7.90;1.60;;;9.40;99.90;;;;;;5058853;28;20471;-78
2023/12/22 05:44:08;;;;;;;30.67;2.27;;;9.40;99.90;;;;;;5058217;28;20532;-77
2023/12/22 05:46:37;;;;;;;12.17;3.60;;;9.40;99.90;;;;;;5058992;28;20471;-81
2023/12/22 05:49:06;;;;;;;18.20;3.27;;;9.40;99.90;;;;;;5058251;28;20483;-77
2023/12/22 05:51:37;;;;;;;8.23;3.03;;;9.40;99.90;;;;;;5054131;28;20579;-75
2023/12/22 05:54:05;;;;;;;20.27;2.60;;;9.50;99.90;;;;;;5059162;28;20831;-77
2023/12/22 05:56:32;;;;;;;15.43;2.80;;;9.50;99.90;;;;;;5057645;28;20502;-75
2023/12/22 05:58:59;;;;;;;37.20;5.97;;;9.40;99.90;;;;;;5057882;28;20707;-72
2023/12/22 06:01:26;;;;;;;17.70;2.80;;;9.40;99.90;;;;;;5058980;28;20548;-76
2023/12/22 06:03:53;;;;;;;16.93;4.50;;;9.40;99.90;;;;;;5058672;28;20494;-75
2023/12/22 06:06:21;;;;;;;30.13;3.90;;;9.40;99.90;;;;;;5058464;28;20554;-77
2023/12/22 06:08:48;;;;;;;8.80;2.90;;;9.40;99.90;;;;;;5055269;28;20562;-75
2023/12/22 06:11:15;;;;;;;7.70;2.20;;;9.20;99.90;;;;;;5051370;28;20475;-74
2023/12/22 06:13:42;;;;;;;15.23;2.50;;;9.20;99.90;;;;;;5069108;28;20531;-73
2023/12/22 06:16:13;;;;;;;7.17;2.70;;;9.20;99.90;;;;;;5063802;28;20553;-72
2023/12/22 06:18:39;;;;;;;17.10;2.77;;;9.20;99.90;;;;;;5044332;28;20468;-73
2023/12/22 06:21:06;;;;;;;13.83;3.50;;;9.20;99.90;;;;;;5039788;28;20582;-74
2023/12/22 06:23:34;;;;;;;14.80;3.10;;;9.30;99.90;;;;;;5056785;28;20586;-73
2023/12/22 06:26:02;;;;;;;18.67;3.93;;;9.20;99.90;;;;;;5052229;28;20764;-75
2023/12/22 06:28:29;;;;;;;23.57;3.90;;;9.10;99.90;;;;;;5059701;28;20752;-76
2023/12/22 06:30:56;;;;;;;13.70;3.40;;;9.10;99.90;;;;;;5061889;28;20914;-73
2023/12/22 06:33:22;;;;;;;27.37;3.57;;;9.10;99.90;;;;;;5054219;28;21285;-74
2023/12/22 06:35:53;;;;;;;7.20;2.33;;;9.20;99.90;;;;;;5073164;28;20903;-73
2023/12/22 06:38:20;;;;;;;11.33;3.10;;;9.10;99.90;;;;;;5059703;28;20478;-73
2023/12/22 06:40:48;;;;;;;12.00;4.20;;;9.20;99.90;;;;;;5060773;28;20577;-77
2023/12/22 06:43:15;;;;;;;37.93;7.53;;;;;;;;;;5062134;28;20470;-70
2023/12/22 06:45:41;;;;;;;10.90;2.93;;;9.30;99.90;;;;;;5061249;28;20910;-71
2023/12/22 06:48:09;;;;;;;26.00;5.23;;;9.20;99.90;;;;;;5061061;28;20944;-70
2023/12/22 06:50:37;;;;;;;13.70;2.97;;;9.20;99.90;;;;;;5062354;28;21008;-75
2023/12/22 06:53:04;;;;;;;18.90;3.53;;;9.30;99.90;;;;;;5061785;28;20475;-72
2023/12/22 06:55:31;;;;;;;26.10;4.30;;;9.30;99.90;;;;;;5061532;28;20532;-73
2023/12/22 06:57:59;;;;;;;15.23;3.20;;;9.30;99.90;;;;;;5062001;28;20507;-74
2023/12/22 07:00:26;;;;;;;9.87;2.67;;;9.30;99.90;;;;;;5060930;28;20490;-76
2023/12/22 07:02:53;;;;;;;17.30;3.70;;;9.30;99.90;;;;;;5062459;28;20996;-77
2023/12/22 07:05:36;;;;;;;18.20;4.00;;;9.40;99.90;;;;;;5060970;28;20528;-77
2023/12/22 07:08:06;;;;;;;20.83;4.17;;;9.40;99.90;;;;;;5060801;28;20479;-75
2023/12/22 07:10:32;;;;;;;8.60;3.07;;;9.40;99.90;;;;;;5062331;28;20762;-77
2023/12/22 07:13:01;;;;;;;15.90;3.83;;;9.40;99.90;;;;;;5061269;28;20522;-79
2023/12/22 07:15:28;;;;;;;32.97;4.50;;;9.40;99.90;;;;;;5061704;28;20562;-75
2023/12/22 07:17:55;;;;;;;12.57;2.60;;;9.50;99.90;;;;;;5060208;28;21030;-79
2023/12/22 07:20:22;;;;;;;15.70;4.23;;;9.40;99.90;;;;;;5060894;28;20814;-79
2023/12/22 07:22:48;;;;;;;20.13;3.80;;;9.50;99.90;;;;;;5062070;28;20515;-79
2023/12/22 07:25:15;;;;;;;10.90;2.90;;;9.40;99.90;;;;;;5045334;28;20543;-81
2023/12/22 07:27:42;;;;;;;8.60;3.00;;;9.40;99.90;;;;;;5043389;28;20506;-75
2023/12/22 07:30:15;;;;;;;19.63;5.10;;;9.40;99.90;;;;;;5045673;28;20588;-76
2023/12/22 07:32:44;;;;;;;22.73;3.53;;;9.40;99.90;;;;;;5039788;28;20805;-78
2023/12/22 07:35:11;;;;;;;17.60;3.20;;;9.50;99.90;;;;;;5038367;28;20479;-78
2023/12/22 07:37:37;;;;;;;29.20;4.20;;;9.50;99.90;;;;;;5055867;28;21255;-78
2023/12/22 07:40:05;;;;;;;38.80;5.27;;;9.50;99.90;;;;;;5062250;28;20960;-78
2023/12/22 07:42:32;;;;;;;11.63;3.20;;;9.60;99.90;;;;;;5033777;28;20483;-76
2023/12/22 07:44:59;;;;;;;10.37;2.87;;;9.60;99.90;;;;;;5038538;28;20603;-78
2023/12/22 07:47:27;;;;;;;17.27;4.60;;;9.60;99.90;;;;;;5059030;28;20567;-76
2023/12/22 07:49:54;;;;;;;16.33;4.43;;;9.60;99.90;;;;;;5051897;28;21028;-77
2023/12/22 07:52:21;;;;;;;9.17;3.00;;;9.60;99.90;;;;;;5048802;28;20510;-78
2023/12/22 07:54:48;;;;;;;9.30;2.13;;;9.60;99.90;;;;;;5053630;28;20579;-78
2023/12/22 07:57:15;;;;;;;12.20;2.77;;;9.60;99.90;;;;;;5052291;28;20864;-76
2023/12/22 07:59:42;;;;;;;6.83;2.80;;;9.60;99.90;;;;;;5055087;28;20908;-78
2023/12/22 08:02:09;;;;;;;7.03;1.97;;;9.60;99.90;;;;;;5029161;28;20492;-80
2023/12/22 08:04:37;;;;;;;4.70;1.73;;;9.60;99.90;;;;;;5061114;28;20479;-75
2023/12/22 08:07:04;;;;;;;9.23;3.00;;;9.60;99.90;;;;;;5052800;28;21000;-77
2023/12/22 08:09:32;;;;;;;16.33;3.00;;;9.60;99.90;;;;;;5055140;28;20570;-74
2023/12/22 08:11:59;;;;;;;9.93;2.40;;;9.60;99.90;;;;;;5053644;28;21068;-78
2023/12/22 08:14:26;;;;;;;9.97;2.57;;;9.70;99.90;;;;;;5055210;28;20503;-77
2023/12/22 08:16:53;;;;;;;6.27;2.50;;;9.70;99.90;;;;;;5055166;28;20906;-78
2023/12/22 08:19:20;;;;;;;12.57;5.03;;;9.70;99.90;;;;;;5057819;28;20547;-75
2023/12/22 08:21:48;;;;;;;9.27;2.97;;;9.70;99.90;;;;;;5054491;28;20544;-76
2023/12/22 08:24:15;;;;;;;11.67;3.27;;;9.70;99.90;;;;;;5054834;28;21135;-77
2023/12/22 08:26:42;;;;;;;18.23;2.57;;;9.80;99.90;;;;;;5053443;28;20854;-76
2023/12/22 08:29:09;;;;;;;7.10;1.57;;;9.80;99.90;;;;;;5050444;28;20941;-78
2023/12/22 08:31:36;;;;;;;10.73;3.00;;;;;;;;;;5054664;28;20704;-77
2023/12/22 08:34:03;;;;;;;26.67;2.83;;;9.80;99.90;;;;;;5053219;28;20586;-77
2023/12/22 08:36:30;;;;;;;23.40;3.10;;;9.70;99.90;;;;;;5050130;28;20528;-78
2023/12/22 08:38:58;;;;;;;9.20;2.53;;;9.70;99.90;;;;;;5048333;28;21036;-75
2023/12/22 08:41:26;;;;;;;54.10;3.07;;;9.80;99.90;;;;;;5066742;28;20514;-75
2023/12/22 08:43:53;;;;;;;8.20;1.77;;;;;;;;;;5031708;28;20724;-75
2023/12/22 08:46:20;;;;;;;17.43;3.37;;;9.80;99.90;;;;;;5061935;28;20564;-75
2023/12/22 08:48:47;;;;;;;16.93;2.50;;;9.80;99.90;;;;;;5053099;28;20506;-78
2023/12/22 08:51:14;;;;;;;16.03;3.10;;;9.80;99.90;;;;;;5057156;28;20586;-75
2023/12/22 08:53:41;;;;;;;12.07;2.83;;;9.80;99.90;;;;;;5055126;28;20912;-75
2023/12/22 08:56:09;;;;;;;12.50;2.80;;;9.80;99.90;;;;;;5053276;28;21200;-76
2023/12/22 08:58:36;;;;;;;11.93;3.17;;;9.80;99.90;;;;;;5050110;28;20502;-74
2023/12/22 09:01:03;;;;;;;16.17;2.63;;;9.90;99.90;;;;;;5054362;28;20475;-75
2023/12/22 09:03:35;;;;;;;11.93;3.50;;;9.90;99.90;;;;;;5056083;28;20502;-74
2023/12/22 09:06:02;;;;;;;13.43;2.60;;;9.90;99.90;;;;;;5043447;28;20556;-76
2023/12/22 09:08:29;;;;;;;16.63;3.83;;;9.90;99.90;;;;;;5032814;28;20500;-74
2023/12/22 09:10:55;;;;;;;9.87;3.43;;;9.90;99.90;;;;;;5042796;28;20471;-74
2023/12/22 09:13:24;;;;;;;10.83;3.60;;;9.80;99.90;;;;;;5051408;28;21183;-74
2023/12/22 09:15:51;;;;;;;10.23;2.20;;;9.90;99.90;;;;;;5055305;28;20235;-74
2023/12/22 09:18:18;;;;;;;17.13;3.70;;;;;;;;;;5054336;28;20485;-74
2023/12/22 09:20:45;;;;;;;15.73;3.23;;;9.90;99.90;;;;;;5052709;28;20580;-75
2023/12/22 09:23:11;;;;;;;6.53;2.03;;;9.80;99.90;;;;;;5054814;28;20511;-75
2023/12/22 09:25:39;;;;;;;17.93;3.17;;;9.80;99.90;;;;;;5052862;28;20623;-76
2023/12/22 09:28:07;;;;;;;15.23;3.17;;;9.80;99.90;;;;;;5053223;28;20524;-72
2023/12/22 09:30:35;;;;;;;9.00;3.00;;;9.80;99.90;;;;;;5053506;28;20558;-75
2023/12/22 09:33:02;;;;;;;8.53;2.10;;;9.90;99.90;;;;;;5042884;28;20592;-74
2023/12/22 09:35:28;;;;;;;14.23;3.60;;;9.80;99.90;;;;;;5032609;28;20922;-74
2023/12/22 09:37:55;;;;;;;9.03;3.33;;;9.80;99.90;;;;;;5032469;28;21298;-74
2023/12/22 09:40:23;;;;;;;6.50;2.40;;;9.90;99.90;;;;;;5032639;28;20916;-73
2023/12/22 09:42:51;;;;;;;7.63;3.07;;;9.90;99.90;;;;;;5031727;28;20537;-75
2023/12/22 09:45:19;;;;;;;17.53;2.10;;;9.90;99.90;;;;;;5034430;28;20698;-74
2023/12/22 09:47:49;;;;;;;14.93;3.43;;;9.90;99.90;;;;;;5033396;28;20511;-74
2023/12/22 09:50:16;;;;;;;9.40;2.53;;;9.90;99.90;;;;;;5037298;28;20566;-77
2023/12/22 09:52:45;;;;;;;11.17;4.27;;;;;;;;;;5037453;28;20567;-74
2023/12/22 09:55:13;;;;;;;13.77;2.37;;;9.90;99.90;;;;;;5038171;28;20479;-75
2023/12/22 09:57:40;;;;;;;6.47;3.70;;;9.90;99.90;;;;;;5038449;28;20516;-76
2023/12/22 10:00:10;;;;;;;18.73;2.83;;;9.90;99.90;;;;;;5039240;28;20586;-72
2023/12/22 10:02:37;;;;;;;7.77;2.00;;;9.90;99.90;;;;;;5035213;28;20670;-77
2023/12/22 10:05:07;;;;;;;15.73;2.73;;;9.90;99.90;;;;;;5034850;28;20507;-76
2023/12/22 10:07:34;;;;;;;2.37;1.57;;;9.90;99.90;;;;;;5029917;28;20545;-77
2023/12/22 10:10:02;;;;;;;10.93;3.57;;;9.90;99.90;;;;;;5045894;28;20977;-75
2023/12/22 10:12:31;;;;;;;6.70;2.10;;;10.00;99.90;;;;;;5038824;28;20543;-77
2023/12/22 10:15:01;;;;;;;5.97;1.67;;;10.00;99.90;;;;;;5036877;28;20474;-76
2023/12/22 10:17:29;;;;;;;3.90;1.60;;;10.00;99.90;;;;;;5040443;28;20618;-76
2023/12/22 10:19:56;;;;;;;7.17;2.20;;;10.00;99.90;;;;;;5038056;28;21010;-79
2023/12/22 10:22:24;;;;;;;2.70;1.43;;;10.00;99.90;;;;;;5036156;28;21290;-79
2023/12/22 10:24:51;;;;;;;4.07;1.17;;;10.00;99.90;;;;;;5037443;28;20578;-72
2023/12/22 10:27:22;;;;;;;12.97;2.57;;;9.90;99.90;;;;;;5037646;28;20534;-71
2023/12/22 10:29:49;;;;;;;4.57;1.57;;;9.90;99.90;;;;;;5037132;28;20952;-73
2023/12/22 10:32:16;;;;;;;9.80;1.50;;;9.90;99.90;;;;;;5030423;28;20570;-71
2023/12/22 10:34:43;;;;;;;9.23;1.80;;;9.90;99.90;;;;;;5035437;28;20934;-72
2023/12/22 10:37:12;;;;;;;8.50;2.03;;;9.90;99.90;;;;;;5036314;28;20599;-74
2023/12/22 10:39:41;;;;;;;4.40;1.83;;;9.80;99.90;;;;;;5036724;28;20502;-74
2023/12/22 10:42:08;;;;;;;12.20;1.73;;;9.80;99.90;;;;;;5037388;28;21051;-73
2023/12/22 10:44:35;;;;;;;4.57;1.67;;;9.80;99.90;;;;;;5038241;28;20483;-74
2023/12/22 10:47:03;;;;;;;4.47;1.43;;;9.70;99.90;;;;;;5048744;28;20925;-74
2023/12/22 10:49:32;;;;;;;13.33;1.30;;;9.80;99.90;;;;;;5060141;28;20470;-72
2023/12/22 10:51:59;;;;;;;4.87;1.47;;;9.80;99.90;;;;;;5056497;28;20565;-74
2023/12/22 10:54:26;;;;;;;5.60;1.93;;;9.80;99.90;;;;;;5050249;28;21158;-77
2023/12/22 10:56:58;;;;;;;3.40;1.00;;;9.60;99.90;;;;;;5060811;28;20502;-74
2023/12/22 10:59:30;;;;;;;3.10;1.77;;;9.70;99.90;;;;;;5050742;28;20498;-76
2023/12/22 11:01:58;;;;;;;4.73;1.20;;;9.60;99.90;;;;;;5055433;28;20520;-73
2023/12/22 11:04:33;;;;;;;2.60;1.03;;;9.70;99.90;;;;;;5052282;28;20571;-74
2023/12/22 11:07:03;;;;;;;3.80;0.90;;;9.70;99.90;;;;;;5054129;28;20998;-76
2023/12/22 11:09:33;;;;;;;3.30;0.83;;;9.70;99.90;;;;;;5056492;28;20588;-74
2023/12/22 11:12:02;;;;;;;7.13;1.33;;;9.70;99.90;;;;;;5056250;28;20532;-74
2023/12/22 11:14:31;;;;;;;1.50;0.70;;;9.70;99.90;;;;;;5055407;28;21053;-72
2023/12/22 11:17:01;;;;;;;13.17;2.03;;;9.70;99.90;;;;;;5054448;28;20521;-72
2023/12/22 11:19:29;;;;;;;2.13;0.83;;;9.70;99.90;;;;;;5057933;28;20487;-79
2023/12/22 11:21:59;;;;;;;5.13;1.37;;;9.60;99.90;;;;;;5056460;28;20575;-73
2023/12/22 11:24:29;;;;;;;1.70;0.83;;;9.70;99.90;;;;;;5057130;28;20477;-75
2023/12/22 11:26:58;;;;;;;3.60;1.40;;;9.80;99.90;;;;;;5045868;28;21109;-73
2023/12/22 11:29:27;;;;;;;14.53;1.83;;;9.80;99.90;;;;;;5070568;28;20888;-75
2023/12/22 11:31:56;;;;;;;10.73;1.37;;;9.80;99.90;;;;;;5047388;28;20503;-74
2023/12/22 11:34:25;;;;;;;2.93;0.87;;;;;;;;;;5064154;28;20954;-74
2023/12/22 11:36:54;;;;;;;8.50;1.33;;;9.70;99.90;;;;;;5058515;28;20494;-75
2023/12/22 11:39:22;;;;;;;1.47;0.60;;;9.80;99.90;;;;;;5056483;28;20554;-72
2023/12/22 11:41:51;;;;;;;2.00;0.90;;;9.90;99.90;;;;;;5050072;28;21019;-74
2023/12/22 11:44:18;;;;;;;3.30;1.20;;;9.90;99.90;;;;;;5050674;28;20873;-71
2023/12/22 11:46:47;;;;;;;1.87;1.00;;;9.90;99.90;;;;;;5039055;28;20519;-72
2023/12/22 11:49:14;;;;;;;1.80;0.77;;;10.00;99.90;;;;;;5047291;28;20839;-73
2023/12/22 11:51:41;;;;;;;3.13;1.20;;;10.10;99.90;;;;;;5045163;28;20554;-72
2023/12/22 11:54:41;;;;;;;2.40;0.90;;;10.20;99.90;;;;;;5036480;28;20523;-77
2023/12/22 11:57:32;;;;;;;6.23;1.50;;;10.20;99.90;;;;;;5033838;28;20899;-72
2023/12/22 11:59:59;;;;;;;1.60;1.00;;;10.20;99.90;;;;;;5026465;28;20507;-73
2023/12/22 12:02:31;;;;;;;4.33;1.13;;;10.20;99.90;;;;;;5033708;28;20599;-73
2023/12/22 12:05:00;;;;;;;3.90;1.00;;;;;;;;;;5034986;28;21243;-72
2023/12/22 12:07:47;;;;;;;2.90;0.90;;;10.40;99.90;;;;;;5026260;28;20491;-73
2023/12/22 12:10:53;;;;;;;1.70;0.90;;;10.40;99.90;;;;;;5035296;28;20993;-74
2023/12/22 12:13:25;;;;;;;1.60;0.80;;;10.40;99.90;;;;;;5022253;28;20467;-73
2023/12/22 12:15:53;;;;;;;1.90;0.80;;;10.50;99.90;;;;;;5031525;28;20476;-74
2023/12/22 12:18:24;;;;;;;2.47;1.13;;;10.60;99.90;;;;;;5033525;28;20476;-73
2023/12/22 12:20:51;;;;;;;9.27;1.50;;;;;;;;;;5037371;28;20982;-75
2023/12/22 12:23:18;;;;;;;1.50;0.70;;;10.60;99.90;;;;;;5041560;28;20495;-73
2023/12/22 12:25:45;;;;;;;2.77;1.07;;;10.70;99.90;;;;;;5035834;28;20512;-72
2023/12/22 12:28:12;;;;;;;1.70;0.70;;;10.70;99.90;;;;;;5051675;28;20568;-73
2023/12/22 12:30:41;;;;;;;1.90;1.10;;;10.70;99.90;;;;;;5054834;28;21059;-75
2023/12/22 12:33:09;;;;;;;3.93;0.70;;;10.80;99.90;;;;;;5053348;28;20479;-76
2023/12/22 12:35:38;;;;;;;1.97;0.90;;;10.90;99.90;;;;;;5053497;28;20482;-77
2023/12/22 12:38:05;;;;;;;22.37;2.53;;;10.90;99.90;;;;;;5054461;28;20575;-73
2023/12/22 12:40:35;;;;;;;2.90;1.10;;;10.90;99.90;;;;;;5056048;28;21302;-73
2023/12/22 12:43:03;;;;;;;4.90;1.10;;;11.00;99.90;;;;;;5052889;28;21290;-75
2023/12/22 12:45:30;;;;;;;3.50;1.43;;;11.00;99.90;;;;;;5053684;28;20475;-73
2023/12/22 12:47:58;;;;;;;2.20;0.80;;;11.00;99.90;;;;;;5055065;28;20487;-72
2023/12/22 12:50:25;;;;;;;1.70;0.90;;;10.90;99.90;;;;;;5053435;28;20482;-72
2023/12/22 12:52:55;;;;;;;9.70;1.40;;;11.00;99.90;;;;;;5057520;28;20490;-75
2023/12/22 12:55:22;;;;;;;1.53;0.73;;;11.00;99.90;;;;;;5054572;28;20467;-73
2023/12/22 12:57:50;;;;;;;2.03;0.97;;;11.00;99.90;;;;;;5056206;28;20555;-72
2023/12/22 13:00:17;;;;;;;6.10;1.17;;;11.00;99.90;;;;;;5044574;28;21083;-72